PH0B4 EHEH-EHEH

Flight info

Callsign PH0B4
Flight time 0h 5m
Altitude 6000
Route VFR CIRCUITS
Aircraft DA42/L-SBDGRY/S

Departure

Time 2026-05-05 13:55
Airport Eindhoven Airport (EHEH)

Arrival

Time 2026-05-05 14:01
Airport Eindhoven Airport (EHEH)
Time Latitude Longitude Altitude Speed Heading
2026-05-05 13:43 51.45427 5.37360 73 ft 0 kts 305°
2026-05-05 13:49 51.45427 5.37359 73 ft 1 kts 305°
2026-05-05 13:49 51.45430 5.37353 73 ft 0 kts 314°
2026-05-05 13:49 51.45431 5.37353 73 ft 0 kts 315°
2026-05-05 13:50 51.45442 5.37336 70 ft 0 kts 320°
2026-05-05 13:50 51.45448 5.37308 70 ft 0 kts 195°
2026-05-05 13:50 51.45413 5.37299 72 ft 6 kts 194°
2026-05-05 13:51 51.45366 5.37260 71 ft 6 kts 182°
2026-05-05 13:51 51.45335 5.37288 66 ft 8 kts 124°
2026-05-05 13:51 51.45299 5.37372 72 ft 12 kts 124°
2026-05-05 13:51 51.45272 5.37436 72 ft 6 kts 135°
2026-05-05 13:52 51.45230 5.37420 66 ft 13 kts 219°
2026-05-05 13:52 51.45127 5.37302 71 ft 23 kts 217°
2026-05-05 13:52 51.45009 5.37169 75 ft 19 kts 216°
2026-05-05 13:52 51.44899 5.37044 74 ft 17 kts 217°
2026-05-05 13:53 51.44829 5.36968 73 ft 10 kts 201°
2026-05-05 13:53 51.44781 5.36999 68 ft 7 kts 136°
2026-05-05 13:53 51.44758 5.37039 74 ft 4 kts 127°
2026-05-05 13:53 51.44736 5.37094 69 ft 7 kts 118°
2026-05-05 13:54 51.44736 5.37138 75 ft 4 kts 60°
2026-05-05 13:54 51.44805 5.37216 67 ft 35 kts 35°
2026-05-05 13:54 51.45118 5.37584 163 ft 64 kts 33°
2026-05-05 13:54 51.45477 5.37991 418 ft 65 kts 32°
2026-05-05 13:55 51.45906 5.38453 593 ft 81 kts 32°
2026-05-05 13:55 51.46363 5.38920 875 ft 83 kts 33°
2026-05-05 13:55 51.46868 5.39453 1018 ft 93 kts 33°
2026-05-05 13:55 51.47407 5.40061 1184 ft 95 kts 32°
2026-05-05 13:56 51.48041 5.40340 1308 ft 102 kts 355°
2026-05-05 13:56 51.48633 5.39687 1464 ft 112 kts 308°
2026-05-05 13:56 51.48780 5.38411 1522 ft 126 kts 264°
2026-05-05 13:56 51.48344 5.37131 1509 ft 137 kts 226°
2026-05-05 13:57 51.47696 5.36374 1490 ft 139 kts 214°
2026-05-05 13:57 51.47654 5.36328 1488 ft 140 kts 215°
2026-05-05 13:57 51.47119 5.35736 1436 ft 141 kts 215°
2026-05-05 13:58 51.46031 5.34542 1377 ft 145 kts 214°
2026-05-05 13:58 51.45195 5.33623 1307 ft 144 kts 216°
2026-05-05 13:58 51.44402 5.32695 1375 ft 141 kts 215°
2026-05-05 13:58 51.43878 5.32089 1395 ft 140 kts 218°
2026-05-05 13:59 51.42350 5.32148 1426 ft 110 kts 116°
2026-05-05 13:59 51.42204 5.33299 1344 ft 104 kts 77°
2026-05-05 14:00 51.42902 5.35173 671 ft 93 kts 40°
2026-05-05 14:00 51.43435 5.35711 367 ft 87 kts 34°
2026-05-05 14:00 51.43903 5.36215 189 ft 78 kts 33°
2026-05-05 14:00 51.44335 5.36687 83 ft 68 kts 31°
2026-05-05 14:01 51.44663 5.37048 73 ft 47 kts 33°
2026-05-05 14:01 51.45012 5.37449 107 ft 76 kts 32°
2026-05-05 14:01 51.45444 5.37909 335 ft 76 kts 29°
2026-05-05 14:01 51.45908 5.38373 519 ft 84 kts 30°
2026-05-05 14:02 51.46427 5.38840 801 ft 84 kts 27°
2026-05-05 14:02 51.46956 5.39289 1061 ft 88 kts 26°
2026-05-05 14:02 51.47523 5.39751 1203 ft 95 kts 26°
2026-05-05 14:02 51.48171 5.39951 1350 ft 103 kts 352°
2026-05-05 14:03 51.48708 5.39099 1427 ft 122 kts 290°
2026-05-05 14:03 51.48420 5.37864 1548 ft 133 kts 220°
2026-05-05 14:03 51.47625 5.37074 1579 ft 137 kts 211°
2026-05-05 14:03 51.46796 5.36258 1537 ft 143 kts 210°
2026-05-05 14:04 51.45935 5.35426 1477 ft 148 kts 213°
2026-05-05 14:04 51.45072 5.34532 1296 ft 150 kts 211°
2026-05-05 14:04 51.44182 5.33680 1194 ft 140 kts 211°
2026-05-05 14:04 51.43416 5.32831 1212 ft 131 kts 217°
2026-05-05 14:05 51.42650 5.32185 1294 ft 115 kts 183°
2026-05-05 14:05 51.42103 5.32752 1423 ft 95 kts 107°
2026-05-05 14:05 51.42100 5.33824 1324 ft 102 kts 68°
2026-05-05 14:05 51.42509 5.34743 1075 ft 101 kts 40°
2026-05-05 14:06 51.43070 5.35314 748 ft 89 kts 34°
2026-05-05 14:06 51.43566 5.35833 354 ft 80 kts 34°
2026-05-05 14:06 51.43991 5.36311 141 ft 68 kts 32°
2026-05-05 14:06 51.44355 5.36715 71 ft 58 kts 33°
2026-05-05 14:07 51.44671 5.37062 73 ft 51 kts 33°
2026-05-05 14:07 51.44986 5.37414 71 ft 71 kts 37°
2026-05-05 14:07 51.45401 5.37885 298 ft 71 kts 31°
2026-05-05 14:07 51.45866 5.38302 470 ft 83 kts 25°
2026-05-05 14:08 51.46376 5.38745 729 ft 86 kts 33°
2026-05-05 14:08 51.46853 5.39237 1026 ft 86 kts 31°
2026-05-05 14:08 51.47376 5.39761 1185 ft 91 kts 29°
2026-05-05 14:08 51.47955 5.40261 1304 ft 99 kts 21°
2026-05-05 14:09 51.48648 5.40082 1348 ft 115 kts 324°
2026-05-05 14:09 51.48882 5.38831 1413 ft 129 kts 259°
2026-05-05 14:09 51.48300 5.37700 1411 ft 139 kts 216°
2026-05-05 14:09 51.47475 5.36858 1444 ft 140 kts 210°
2026-05-05 14:10 51.46617 5.36054 1409 ft 143 kts 209°
2026-05-05 14:10 51.45753 5.35292 1364 ft 139 kts 209°
2026-05-05 14:10 51.45180 5.34783 1193 ft 140 kts 210°
2026-05-05 14:10 51.44383 5.33956 1011 ft 135 kts 215°
2026-05-05 14:11 51.43653 5.33083 964 ft 129 kts 218°
2026-05-05 14:11 51.42872 5.32666 973 ft 115 kts 162°
2026-05-05 14:11 51.42347 5.33505 850 ft 104 kts 100°
2026-05-05 14:11 51.42496 5.34512 801 ft 93 kts 53°
2026-05-05 14:12 51.43015 5.35221 604 ft 104 kts 37°
2026-05-05 14:12 51.43562 5.35826 387 ft 85 kts 39°
2026-05-05 14:12 51.44045 5.36365 133 ft 84 kts 34°
2026-05-05 14:12 51.44470 5.36837 73 ft 62 kts 35°
2026-05-05 14:13 51.44764 5.37166 72 ft 54 kts 36°
2026-05-05 14:13 51.45166 5.37616 132 ft 80 kts 32°
2026-05-05 14:13 51.45627 5.38117 325 ft 80 kts 32°
2026-05-05 14:13 51.46132 5.38651 456 ft 94 kts 33°
2026-05-05 14:14 51.46668 5.39209 750 ft 93 kts 32°
2026-05-05 14:14 51.47234 5.39810 943 ft 101 kts 33°
2026-05-05 14:14 51.47842 5.40430 1082 ft 102 kts 31°
2026-05-05 14:14 51.48540 5.40563 1194 ft 112 kts 342°
2026-05-05 14:15 51.48965 5.39506 1302 ft 128 kts 274°
2026-05-05 14:15 51.48451 5.38324 1345 ft 137 kts 217°
2026-05-05 14:15 51.47656 5.37399 1297 ft 145 kts 216°
2026-05-05 14:15 51.46837 5.36447 1290 ft 143 kts 218°
2026-05-05 14:16 51.46035 5.35507 1329 ft 141 kts 215°
2026-05-05 14:16 51.45200 5.34594 1286 ft 147 kts 214°
2026-05-05 14:16 51.44351 5.33698 1292 ft 147 kts 213°
2026-05-05 14:16 51.43526 5.32769 1315 ft 138 kts 216°
2026-05-05 14:17 51.42693 5.32062 1261 ft 136 kts 186°
2026-05-05 14:17 51.41881 5.32555 1212 ft 123 kts 121°
2026-05-05 14:17 51.41844 5.33764 1090 ft 115 kts 62°
2026-05-05 14:17 51.42437 5.34632 860 ft 121 kts 33°
2026-05-05 14:18 51.43087 5.35294 557 ft 94 kts 36°
2026-05-05 14:18 51.43603 5.35854 278 ft 82 kts 34°
2026-05-05 14:18 51.44054 5.36373 113 ft 77 kts 33°
2026-05-05 14:18 51.44463 5.36829 74 ft 66 kts 33°
2026-05-05 14:19 51.44806 5.37211 70 ft 52 kts 36°
2026-05-05 14:19 51.45181 5.37638 98 ft 77 kts 32°
2026-05-05 14:19 51.45637 5.38136 257 ft 83 kts 33°
2026-05-05 14:19 51.46115 5.38661 472 ft 82 kts 33°
2026-05-05 14:20 51.46594 5.39143 738 ft 84 kts 28°
2026-05-05 14:20 51.47130 5.39633 897 ft 98 kts 30°
2026-05-05 14:20 51.47752 5.40095 1069 ft 100 kts 17°
2026-05-05 14:20 51.48433 5.39799 1113 ft 117 kts 312°
2026-05-05 14:21 51.48325 5.38538 1135 ft 133 kts 221°
2026-05-05 14:21 51.47555 5.37669 1168 ft 139 kts 215°
2026-05-05 14:21 51.46724 5.36806 1126 ft 144 kts 212°
2026-05-05 14:21 51.45880 5.35932 1093 ft 144 kts 213°
2026-05-05 14:22 51.45040 5.35092 1142 ft 142 kts 212°
2026-05-05 14:22 51.44209 5.34245 1138 ft 140 kts 212°
2026-05-05 14:22 51.43404 5.33390 1209 ft 132 kts 213°
2026-05-05 14:22 51.42680 5.32606 1287 ft 127 kts 212°
2026-05-05 14:23 51.41847 5.32592 1196 ft 120 kts 136°
2026-05-05 14:23 51.41760 5.33704 1115 ft 108 kts 55°
2026-05-05 14:23 51.42357 5.34498 862 ft 117 kts 34°
2026-05-05 14:23 51.42995 5.35193 571 ft 101 kts 35°
2026-05-05 14:24 51.43541 5.35791 329 ft 87 kts 33°
2026-05-05 14:24 51.44034 5.36353 144 ft 86 kts 33°
2026-05-05 14:24 51.44483 5.36856 74 ft 65 kts 33°
2026-05-05 14:24 51.44782 5.37192 70 ft 48 kts 34°
2026-05-05 14:25 51.45124 5.37572 74 ft 77 kts 36°
2026-05-05 14:25 51.45581 5.38077 258 ft 79 kts 32°
2026-05-05 14:25 51.46066 5.38565 437 ft 87 kts 32°
2026-05-05 14:25 51.46619 5.39113 638 ft 97 kts 30°
2026-05-05 14:26 51.47233 5.39712 725 ft 110 kts 30°
2026-05-05 14:26 51.47977 5.39898 794 ft 115 kts 336°
2026-05-05 14:26 51.48300 5.38733 858 ft 128 kts 265°
2026-05-05 14:26 51.47790 5.37603 885 ft 139 kts 220°
2026-05-05 14:27 51.47005 5.36675 938 ft 140 kts 216°
2026-05-05 14:27 51.46190 5.35772 921 ft 143 kts 214°
2026-05-05 14:27 51.45361 5.34864 941 ft 142 kts 214°
2026-05-05 14:27 51.44529 5.34046 925 ft 140 kts 211°
2026-05-05 14:28 51.43710 5.33248 940 ft 134 kts 211°
2026-05-05 14:28 51.42946 5.32561 1080 ft 117 kts 192°
2026-05-05 14:28 51.42215 5.32829 1111 ft 113 kts 130°
2026-05-05 14:28 51.42126 5.33975 985 ft 110 kts 60°
2026-05-05 14:29 51.42686 5.34862 730 ft 120 kts 36°
2026-05-05 14:29 51.43330 5.35545 410 ft 93 kts 38°
2026-05-05 14:29 51.43797 5.36085 191 ft 78 kts 33°
2026-05-05 14:29 51.44198 5.36533 91 ft 63 kts 33°
2026-05-05 14:30 51.44512 5.36884 70 ft 46 kts 34°
2026-05-05 14:30 51.44823 5.37240 86 ft 72 kts 34°
2026-05-05 14:30 51.45260 5.37726 280 ft 76 kts 34°
2026-05-05 14:30 51.45722 5.38241 423 ft 85 kts 33°
2026-05-05 14:31 51.46201 5.38757 685 ft 80 kts 32°
2026-05-05 14:31 51.46716 5.39296 776 ft 100 kts 31°
2026-05-05 14:31 51.47338 5.39915 855 ft 109 kts 28°
2026-05-05 14:31 51.48093 5.39819 803 ft 126 kts 323°
2026-05-05 14:32 51.48353 5.38489 816 ft 138 kts 259°
2026-05-05 14:32 51.47797 5.37238 841 ft 139 kts 210°
2026-05-05 14:32 51.46936 5.36501 863 ft 141 kts 207°
2026-05-05 14:32 51.46068 5.35798 882 ft 141 kts 206°
2026-05-05 14:33 51.45194 5.35050 882 ft 144 kts 209°
2026-05-05 14:33 51.44317 5.34291 858 ft 142 kts 208°
2026-05-05 14:33 51.43473 5.33493 833 ft 140 kts 211°
2026-05-05 14:33 51.42639 5.33049 917 ft 120 kts 167°
2026-05-05 14:34 51.42152 5.33876 794 ft 107 kts 80°
2026-05-05 14:34 51.42610 5.34799 615 ft 116 kts 31°
2026-05-05 14:34 51.43293 5.35502 367 ft 112 kts 38°
2026-05-05 14:34 51.43838 5.36134 181 ft 86 kts 32°
2026-05-05 14:35 51.44268 5.36612 84 ft 64 kts 33°
2026-05-05 14:35 51.44573 5.36952 73 ft 45 kts 35°
2026-05-05 14:35 51.44798 5.37209 74 ft 36 kts 33°
2026-05-05 14:35 51.45082 5.37520 68 ft 59 kts 36°
2026-05-05 14:36 51.45400 5.37886 74 ft 43 kts 36°
2026-05-05 14:36 51.45534 5.38032 74 ft 12 kts 22°
2026-05-05 14:36 51.45577 5.38016 72 ft 10 kts 298°
2026-05-05 14:36 51.45623 5.37916 71 ft 4 kts 315°
2026-05-05 14:37 51.45634 5.37896 69 ft 0 kts 303°
2026-05-05 14:37 51.45677 5.37918 70 ft 14 kts 31°
2026-05-05 14:37 51.45772 5.38012 67 ft 15 kts 17°
2026-05-05 14:37 51.45848 5.37959 70 ft 8 kts 314°
2026-05-05 14:38 51.45836 5.37885 69 ft 10 kts 212°
2026-05-05 14:38 51.45778 5.37802 70 ft 7 kts 229°
2026-05-05 14:38 51.45758 5.37761 70 ft 8 kts 210°
2026-05-05 14:38 51.45767 5.37745 65 ft 2 kts 87°
2026-05-05 14:39 51.45769 5.37752 70 ft 0 kts 55°
2026-05-05 14:49 51.45770 5.37754 70 ft 0 kts 69°
2026-05-05 14:50 51.45770 5.37756 70 ft 0 kts 104°
2026-05-05 14:50 51.45769 5.37757 65 ft 0 kts 134°
2026-05-05 14:50 51.45767 5.37782 65 ft 4 kts 68°
2026-05-05 14:50 51.45794 5.37824 69 ft 8 kts 41°
2026-05-05 14:51 51.45846 5.37890 69 ft 9 kts 33°
2026-05-05 14:51 51.45856 5.37918 69 ft 2 kts 92°
2026-05-05 14:51 51.45847 5.37950 70 ft 3 kts 126°
2026-05-05 14:51 51.45833 5.37979 68 ft 3 kts 121°
2026-05-05 14:52 51.45823 5.38009 67 ft 4 kts 122°
2026-05-05 14:52 51.45805 5.38040 71 ft 4 kts 144°
2026-05-05 14:52 51.45784 5.38048 71 ft 3 kts 195°
2026-05-05 14:52 51.45712 5.37962 68 ft 21 kts 214°
2026-05-05 14:53 51.45599 5.37830 70 ft 16 kts 220°
2026-05-05 14:53 51.45513 5.37732 72 ft 16 kts 211°
2026-05-05 14:53 51.45454 5.37679 73 ft 10 kts 222°
2026-05-05 14:53 51.45384 5.37587 74 ft 12 kts 217°
2026-05-05 14:54 51.45308 5.37502 72 ft 18 kts 217°
2026-05-05 14:54 51.45193 5.37374 72 ft 22 kts 216°
2026-05-05 14:54 51.45078 5.37255 73 ft 15 kts 200°
2026-05-05 14:54 51.44991 5.37145 75 ft 17 kts 211°
2026-05-05 14:55 51.44871 5.37014 75 ft 17 kts 216°
2026-05-05 14:55 51.44804 5.36969 76 ft 9 kts 161°
2026-05-05 14:55 51.44782 5.36997 71 ft 0 kts 120°
2026-05-05 14:55 51.44781 5.37000 75 ft 0 kts 119°
2026-05-05 14:56 51.44763 5.37033 71 ft 12 kts 127°
2026-05-05 14:56 51.44734 5.37129 75 ft 10 kts 45°
2026-05-05 14:56 51.44946 5.37373 77 ft 62 kts 34°
2026-05-05 14:56 51.45358 5.37823 193 ft 79 kts 33°
2026-05-05 14:57 51.45811 5.38329 425 ft 79 kts 32°
2026-05-05 14:57 51.46262 5.38813 717 ft 80 kts 29°
2026-05-05 14:57 51.46778 5.39306 905 ft 91 kts 29°
2026-05-05 14:57 51.47374 5.39769 989 ft 98 kts 22°
2026-05-05 14:58 51.48050 5.40054 1086 ft 107 kts
2026-05-05 14:58 51.48686 5.39456 1184 ft 116 kts 306°
2026-05-05 14:58 51.48624 5.38107 1194 ft 135 kts 239°
2026-05-05 14:58 51.47898 5.37213 1248 ft 138 kts 211°
2026-05-05 14:59 51.47014 5.36442 1133 ft 149 kts 208°
2026-05-05 14:59 51.46083 5.35667 1021 ft 151 kts 207°
2026-05-05 14:59 51.45161 5.34901 965 ft 148 kts 207°
2026-05-05 14:59 51.44253 5.34156 933 ft 145 kts 208°
2026-05-05 15:00 51.43383 5.33404 903 ft 134 kts 201°
2026-05-05 15:00 51.42823 5.33255 960 ft 105 kts 165°
2026-05-05 15:00 51.42434 5.34221 793 ft 80 kts 78°
2026-05-05 15:00 51.42749 5.34930 565 ft 82 kts 34°
2026-05-05 15:01 51.43214 5.35424 410 ft 78 kts 35°
2026-05-05 15:01 51.43668 5.35944 258 ft 81 kts 36°
2026-05-05 15:01 51.44111 5.36448 112 ft 77 kts 30°
2026-05-05 15:01 51.44515 5.36890 71 ft 61 kts 34°
2026-05-05 15:02 51.44814 5.37227 70 ft 57 kts 35°
2026-05-05 15:02 51.45227 5.37681 155 ft 79 kts 33°
2026-05-05 15:02 51.45699 5.38147 372 ft 79 kts 30°
2026-05-05 15:02 51.46178 5.38691 579 ft 86 kts 33°
2026-05-05 15:03 51.46670 5.39292 733 ft 94 kts 36°
2026-05-05 15:03 51.47228 5.40034 729 ft 110 kts 39°
2026-05-05 15:03 51.47907 5.40496 867 ft 110 kts 357°
2026-05-05 15:03 51.48473 5.39669 933 ft 127 kts 288°
2026-05-05 15:04 51.48032 5.38463 847 ft 145 kts 217°
2026-05-05 15:04 51.47209 5.37544 827 ft 145 kts 215°
2026-05-05 15:04 51.46358 5.36663 802 ft 147 kts 212°
2026-05-05 15:04 51.45496 5.35808 742 ft 148 kts 211°
2026-05-05 15:05 51.43738 5.34121 745 ft 149 kts 208°
2026-05-05 15:05 51.42843 5.33286 721 ft 147 kts 212°
2026-05-05 15:05 51.41978 5.32409 703 ft 148 kts 212°
2026-05-05 15:06 51.41114 5.31527 720 ft 147 kts 213°
2026-05-05 15:06 51.40279 5.30619 751 ft 145 kts 216°
2026-05-05 15:06 51.39445 5.29761 787 ft 141 kts 212°
2026-05-05 15:06 51.38840 5.28624 891 ft 132 kts 258°
2026-05-05 15:07 51.39092 5.27335 824 ft 128 kts 323°
2026-05-05 15:07 51.39917 5.27249 703 ft 127 kts 32°
2026-05-05 15:07 51.40306 5.28484 624 ft 132 kts 88°
2026-05-05 15:07 51.39904 5.29732 649 ft 134 kts 136°
2026-05-05 15:08 51.38980 5.30022 575 ft 143 kts 197°
2026-05-05 15:08 51.38436 5.28880 597 ft 132 kts 275°
2026-05-05 15:08 51.38860 5.27785 633 ft 115 kts 339°
2026-05-05 15:08 51.39637 5.27866 624 ft 111 kts 16°
2026-05-05 15:09 51.40373 5.28214 632 ft 112 kts 17°
2026-05-05 15:09 51.41047 5.28758 677 ft 112 kts 47°
2026-05-05 15:09 51.41184 5.29975 677 ft 118 kts 97°
2026-05-05 15:09 51.41050 5.31251 677 ft 116 kts 87°
2026-05-05 15:10 51.41181 5.32462 729 ft 110 kts 62°
2026-05-05 15:10 51.41606 5.33501 649 ft 115 kts 48°
2026-05-05 15:10 51.42227 5.34363 552 ft 123 kts 35°
2026-05-05 15:10 51.42893 5.35086 481 ft 103 kts 37°
2026-05-05 15:11 51.43471 5.35730 296 ft 101 kts 33°
2026-05-05 15:11 51.44020 5.36333 126 ft 86 kts 35°
2026-05-05 15:11 51.44443 5.36808 63 ft 65 kts 36°
2026-05-05 15:11 51.44747 5.37147 75 ft 43 kts 33°
2026-05-05 15:12 51.45000 5.37427 67 ft 39 kts 33°
2026-05-05 15:12 51.45076 5.37542 68 ft 3 kts 108°
2026-05-05 15:12 51.45031 5.37641 64 ft 12 kts 127°
2026-05-05 15:12 51.44979 5.37764 66 ft 8 kts 131°